WZZ2YU EPKT-EDLW
Flight info
| Callsign | WZZ2YU |
|---|---|
| Flight time | 1h 13m |
| Altitude | 36000 |
| Route | ADADO DCT UTEVO DCT ETUDA DCT RAPET T170 RUNEN DCT FULNO/N0439F300 T842 IDEWE/N0399F240 T842 ADEMI ADEMI2A |
| Aircraft | A321/M-SDE3FGHIRWY/LB1 |
Departure
| Time | 2026-04-30 19:11 |
|---|---|
| Airport | Katowice Wojciech Korfanty International Airport (EPKT) |
Arrival
| Time | 2026-04-30 20:24 |
|---|---|
| Airport | Dortmund Airport (EDLW) |
| Time | Latitude | Longitude | Altitude | Speed | Heading |
|---|---|---|---|---|---|
| 2026-04-30 18:39 | 50.47150 | 19.07695 | 999 ft | 0 kts | 180° |
| 2026-04-30 19:01 | 50.47155 | 19.07695 | 998 ft | 4 kts | 180° |
| 2026-04-30 19:02 | 50.47204 | 19.07696 | 998 ft | 4 kts | 176° |
| 2026-04-30 19:02 | 50.47234 | 19.07654 | 998 ft | 4 kts | 90° |
| 2026-04-30 19:03 | 50.47234 | 19.07620 | 998 ft | 0 kts | 90° |
| 2026-04-30 19:06 | 50.47234 | 19.07629 | 998 ft | 4 kts | 90° |
| 2026-04-30 19:06 | 50.47233 | 19.07890 | 1003 ft | 20 kts | 90° |
| 2026-04-30 19:07 | 50.47232 | 19.08365 | 1001 ft | 23 kts | 90° |
| 2026-04-30 19:07 | 50.47232 | 19.08621 | 1000 ft | 24 kts | 90° |
| 2026-04-30 19:08 | 50.47230 | 19.09164 | 1004 ft | 26 kts | 90° |
| 2026-04-30 19:08 | 50.47230 | 19.09740 | 1004 ft | 27 kts | 90° |
| 2026-04-30 19:08 | 50.47229 | 19.09949 | 1003 ft | 9 kts | 90° |
| 2026-04-30 19:09 | 50.47294 | 19.10140 | 998 ft | 12 kts | 52° |
| 2026-04-30 19:09 | 50.47348 | 19.10249 | 1002 ft | 14 kts | 52° |
| 2026-04-30 19:09 | 50.47408 | 19.10371 | 999 ft | 15 kts | 52° |
| 2026-04-30 19:10 | 50.47579 | 19.10449 | 1001 ft | 7 kts | 359° |
| 2026-04-30 19:10 | 50.47595 | 19.09984 | 1001 ft | 76 kts | 270° |
| 2026-04-30 19:11 | 50.47597 | 19.08773 | 1001 ft | 144 kts | 270° |
| 2026-04-30 19:11 | 50.47583 | 19.05200 | 2246 ft | 162 kts | 274° |
| 2026-04-30 19:11 | 50.47580 | 19.03421 | 2938 ft | 167 kts | 275° |
| 2026-04-30 19:12 | 50.47592 | 19.01480 | 3270 ft | 189 kts | 275° |
| 2026-04-30 19:12 | 50.47538 | 18.99301 | 3558 ft | 213 kts | 261° |
| 2026-04-30 19:12 | 50.47069 | 18.96931 | 3809 ft | 241 kts | 255° |
| 2026-04-30 19:13 | 50.45960 | 18.91576 | 5052 ft | 267 kts | 255° |
| 2026-04-30 19:13 | 50.44782 | 18.85931 | 6670 ft | 278 kts | 255° |
| 2026-04-30 19:13 | 50.44175 | 18.83021 | 7431 ft | 284 kts | 255° |
| 2026-04-30 19:14 | 50.43554 | 18.80049 | 8206 ft | 289 kts | 255° |
| 2026-04-30 19:14 | 50.42920 | 18.77030 | 8976 ft | 294 kts | 254° |
| 2026-04-30 19:14 | 50.42275 | 18.73953 | 9761 ft | 299 kts | 255° |
| 2026-04-30 19:14 | 50.41621 | 18.70828 | 10508 ft | 305 kts | 255° |
| 2026-04-30 19:15 | 50.40941 | 18.67566 | 10832 ft | 326 kts | 255° |
| 2026-04-30 19:15 | 50.39433 | 18.60346 | 11300 ft | 367 kts | 254° |
| 2026-04-30 19:15 | 50.38617 | 18.56496 | 11902 ft | 374 kts | 254° |
| 2026-04-30 19:16 | 50.37787 | 18.52602 | 12555 ft | 380 kts | 254° |
| 2026-04-30 19:16 | 50.36943 | 18.48653 | 13222 ft | 385 kts | 254° |
| 2026-04-30 19:16 | 50.35219 | 18.40594 | 14531 ft | 395 kts | 255° |
| 2026-04-30 19:17 | 50.34626 | 18.37821 | 14946 ft | 398 kts | 255° |
| 2026-04-30 19:17 | 50.32846 | 18.29510 | 16169 ft | 407 kts | 255° |
| 2026-04-30 19:17 | 50.31952 | 18.25339 | 16778 ft | 412 kts | 255° |
| 2026-04-30 19:18 | 50.30407 | 18.18155 | 17794 ft | 420 kts | 255° |
| 2026-04-30 19:18 | 50.29163 | 18.12390 | 18601 ft | 426 kts | 255° |
| 2026-04-30 19:18 | 50.28207 | 18.07972 | 19124 ft | 430 kts | 255° |
| 2026-04-30 19:19 | 50.27243 | 18.03518 | 19642 ft | 435 kts | 255° |
| 2026-04-30 19:19 | 50.26267 | 17.99016 | 20160 ft | 440 kts | 255° |
| 2026-04-30 19:19 | 50.24273 | 17.89862 | 21192 ft | 450 kts | 255° |
| 2026-04-30 19:20 | 50.23255 | 17.85214 | 21677 ft | 454 kts | 255° |
| 2026-04-30 19:20 | 50.22226 | 17.80530 | 22175 ft | 459 kts | 255° |
| 2026-04-30 19:20 | 50.20989 | 17.70806 | 23096 ft | 455 kts | 274° |
| 2026-04-30 19:21 | 50.20982 | 17.65865 | 23559 ft | 456 kts | 277° |
| 2026-04-30 19:21 | 50.21013 | 17.55868 | 24414 ft | 465 kts | 276° |
| 2026-04-30 19:22 | 50.19971 | 17.45694 | 25147 ft | 487 kts | 258° |
| 2026-04-30 19:22 | 50.16998 | 17.30361 | 26248 ft | 498 kts | 258° |
| 2026-04-30 19:23 | 50.13977 | 17.14681 | 27307 ft | 509 kts | 258° |
| 2026-04-30 19:24 | 50.11914 | 17.04058 | 27973 ft | 516 kts | 258° |
| 2026-04-30 19:24 | 50.10866 | 16.98695 | 28283 ft | 519 kts | 258° |
| 2026-04-30 19:24 | 50.08733 | 16.87854 | 28928 ft | 526 kts | 258° |
| 2026-04-30 19:25 | 50.05463 | 16.71371 | 29969 ft | 535 kts | 258° |
| 2026-04-30 19:26 | 50.03257 | 16.60312 | 30867 ft | 535 kts | 258° |
| 2026-04-30 19:26 | 50.01790 | 16.49149 | 31728 ft | 518 kts | 274° |
| 2026-04-30 19:26 | 50.01769 | 16.43616 | 32158 ft | 508 kts | 282° |
| 2026-04-30 19:27 | 50.02421 | 16.32851 | 33028 ft | 502 kts | 284° |
| 2026-04-30 19:27 | 50.03053 | 16.22082 | 33907 ft | 498 kts | 283° |
| 2026-04-30 19:28 | 50.03358 | 16.16710 | 34340 ft | 497 kts | 283° |
| 2026-04-30 19:28 | 50.03956 | 16.06040 | 35102 ft | 493 kts | 283° |
| 2026-04-30 19:29 | 50.04544 | 15.95469 | 35867 ft | 488 kts | 283° |
| 2026-04-30 19:29 | 50.04838 | 15.90234 | 36243 ft | 486 kts | 282° |
| 2026-04-30 19:30 | 50.05705 | 15.74586 | 36407 ft | 482 kts | 282° |
| 2026-04-30 19:31 | 50.06805 | 15.53796 | 36406 ft | 481 kts | 282° |
| 2026-04-30 19:31 | 50.07604 | 15.38233 | 36411 ft | 481 kts | 282° |
| 2026-04-30 19:32 | 50.08132 | 15.27853 | 36413 ft | 481 kts | 282° |
| 2026-04-30 19:32 | 50.08653 | 15.17460 | 36416 ft | 481 kts | 281° |
| 2026-04-30 19:33 | 50.09156 | 15.07077 | 36419 ft | 481 kts | 281° |
| 2026-04-30 19:33 | 50.09650 | 14.96679 | 36426 ft | 481 kts | 281° |
| 2026-04-30 19:34 | 50.10135 | 14.86292 | 36431 ft | 481 kts | 281° |
| 2026-04-30 19:35 | 50.10837 | 14.70766 | 36442 ft | 481 kts | 281° |
| 2026-04-30 19:35 | 50.11259 | 14.61242 | 36442 ft | 481 kts | 281° |
| 2026-04-30 19:36 | 50.11707 | 14.50848 | 36442 ft | 481 kts | 281° |
| 2026-04-30 19:36 | 50.12374 | 14.35254 | 36442 ft | 481 kts | 280° |
| 2026-04-30 19:37 | 50.12807 | 14.24840 | 36442 ft | 481 kts | 280° |
| 2026-04-30 19:37 | 50.13230 | 14.14449 | 36444 ft | 481 kts | 280° |
| 2026-04-30 19:38 | 50.13643 | 14.04055 | 36441 ft | 480 kts | 280° |
| 2026-04-30 19:38 | 50.14051 | 13.93653 | 36437 ft | 480 kts | 280° |
| 2026-04-30 19:39 | 50.14446 | 13.83261 | 36436 ft | 480 kts | 279° |
| 2026-04-30 19:39 | 50.14822 | 13.72860 | 36435 ft | 480 kts | 279° |
| 2026-04-30 19:40 | 50.15190 | 13.62477 | 36433 ft | 480 kts | 279° |
| 2026-04-30 19:40 | 50.15559 | 13.52103 | 36437 ft | 479 kts | 279° |
| 2026-04-30 19:41 | 50.15916 | 13.41714 | 36446 ft | 479 kts | 279° |
| 2026-04-30 19:41 | 50.16262 | 13.31341 | 36441 ft | 479 kts | 279° |
| 2026-04-30 19:42 | 50.16597 | 13.20964 | 36444 ft | 478 kts | 279° |
| 2026-04-30 19:42 | 50.16919 | 13.10676 | 36442 ft | 478 kts | 278° |
| 2026-04-30 19:43 | 50.17243 | 13.00258 | 36442 ft | 477 kts | 278° |
| 2026-04-30 19:44 | 50.17704 | 12.84814 | 36443 ft | 477 kts | 278° |
| 2026-04-30 19:44 | 50.17995 | 12.74484 | 36447 ft | 476 kts | 278° |
| 2026-04-30 19:45 | 50.18279 | 12.64166 | 36450 ft | 476 kts | 278° |
| 2026-04-30 19:45 | 50.18556 | 12.53863 | 36452 ft | 475 kts | 278° |
| 2026-04-30 19:46 | 50.18820 | 12.43557 | 36454 ft | 475 kts | 278° |
| 2026-04-30 19:46 | 50.19393 | 12.33369 | 36453 ft | 466 kts | 288° |
| 2026-04-30 19:47 | 50.21366 | 12.23870 | 36445 ft | 458 kts | 296° |
| 2026-04-30 19:47 | 50.23527 | 12.14507 | 36440 ft | 458 kts | 296° |
| 2026-04-30 19:48 | 50.25666 | 12.05126 | 36434 ft | 458 kts | 296° |
| 2026-04-30 19:48 | 50.27796 | 11.95740 | 36433 ft | 458 kts | 296° |
| 2026-04-30 19:49 | 50.29945 | 11.86377 | 36433 ft | 458 kts | 296° |
| 2026-04-30 19:49 | 50.33172 | 11.72301 | 36434 ft | 458 kts | 295° |
| 2026-04-30 19:50 | 50.35289 | 11.62977 | 36438 ft | 458 kts | 295° |
| 2026-04-30 19:50 | 50.37410 | 11.53581 | 36443 ft | 457 kts | 295° |
| 2026-04-30 19:51 | 50.39519 | 11.44180 | 36443 ft | 457 kts | 295° |
| 2026-04-30 19:51 | 50.41613 | 11.34763 | 36442 ft | 457 kts | 295° |
| 2026-04-30 19:52 | 50.43704 | 11.25363 | 36444 ft | 457 kts | 295° |
| 2026-04-30 19:52 | 50.45793 | 11.15951 | 36438 ft | 457 kts | 294° |
| 2026-04-30 19:53 | 50.47873 | 11.06528 | 36433 ft | 457 kts | 294° |
| 2026-04-30 19:53 | 50.49940 | 10.97096 | 36434 ft | 457 kts | 294° |
| 2026-04-30 19:54 | 50.52001 | 10.87653 | 36433 ft | 456 kts | 294° |
| 2026-04-30 19:54 | 50.54054 | 10.78224 | 36433 ft | 456 kts | 294° |
| 2026-04-30 19:55 | 50.56177 | 10.68830 | 36433 ft | 456 kts | 295° |
| 2026-04-30 19:55 | 50.58345 | 10.59472 | 36430 ft | 454 kts | 297° |
| 2026-04-30 19:56 | 50.61155 | 10.50658 | 36431 ft | 450 kts | 302° |
| 2026-04-30 19:56 | 50.64032 | 10.41910 | 36429 ft | 450 kts | 302° |
| 2026-04-30 19:57 | 50.66899 | 10.33125 | 36422 ft | 450 kts | 302° |
| 2026-04-30 19:57 | 50.69757 | 10.24336 | 36422 ft | 450 kts | 302° |
| 2026-04-30 19:58 | 50.72599 | 10.15588 | 36425 ft | 450 kts | 301° |
| 2026-04-30 19:58 | 50.75464 | 10.06791 | 36433 ft | 450 kts | 301° |
| 2026-04-30 19:59 | 50.78321 | 9.97973 | 36427 ft | 451 kts | 301° |
| 2026-04-30 20:00 | 50.82576 | 9.84737 | 35930 ft | 449 kts | 301° |
| 2026-04-30 20:00 | 50.83989 | 9.80321 | 35322 ft | 450 kts | 301° |
| 2026-04-30 20:00 | 50.85401 | 9.75894 | 34715 ft | 451 kts | 300° |
| 2026-04-30 20:00 | 50.86335 | 9.72955 | 34289 ft | 452 kts | 300° |
| 2026-04-30 20:01 | 50.89042 | 9.63906 | 32826 ft | 457 kts | 297° |
| 2026-04-30 20:01 | 50.90272 | 9.59258 | 32060 ft | 459 kts | 295° |
| 2026-04-30 20:01 | 50.91847 | 9.53001 | 31058 ft | 463 kts | 295° |
| 2026-04-30 20:02 | 50.93851 | 9.45011 | 29627 ft | 467 kts | 295° |
| 2026-04-30 20:02 | 50.95074 | 9.40234 | 28891 ft | 466 kts | 295° |
| 2026-04-30 20:03 | 50.97516 | 9.30888 | 27606 ft | 458 kts | 296° |
| 2026-04-30 20:03 | 50.98756 | 9.26172 | 26962 ft | 454 kts | 295° |
| 2026-04-30 20:03 | 50.99962 | 9.21563 | 26348 ft | 451 kts | 295° |
| 2026-04-30 20:03 | 51.01155 | 9.16974 | 25734 ft | 448 kts | 295° |
| 2026-04-30 20:04 | 51.02330 | 9.12417 | 25146 ft | 445 kts | 295° |
| 2026-04-30 20:04 | 51.03484 | 9.07937 | 24572 ft | 442 kts | 295° |
| 2026-04-30 20:04 | 51.04642 | 9.03430 | 23985 ft | 439 kts | 295° |
| 2026-04-30 20:05 | 51.06933 | 8.94494 | 22656 ft | 433 kts | 295° |
| 2026-04-30 20:05 | 51.08068 | 8.90061 | 22040 ft | 430 kts | 295° |
| 2026-04-30 20:05 | 51.10316 | 8.81271 | 20884 ft | 425 kts | 295° |
| 2026-04-30 20:06 | 51.11523 | 8.76997 | 20353 ft | 420 kts | 301° |
| 2026-04-30 20:06 | 51.12941 | 8.73014 | 19848 ft | 417 kts | 302° |
| 2026-04-30 20:06 | 51.14372 | 8.69006 | 19339 ft | 415 kts | 302° |
| 2026-04-30 20:06 | 51.15789 | 8.65017 | 18834 ft | 413 kts | 302° |
| 2026-04-30 20:07 | 51.17195 | 8.61041 | 18274 ft | 411 kts | 302° |
| 2026-04-30 20:07 | 51.18588 | 8.57091 | 17723 ft | 408 kts | 302° |
| 2026-04-30 20:07 | 51.21735 | 8.49698 | 16608 ft | 398 kts | 314° |
| 2026-04-30 20:08 | 51.23538 | 8.46371 | 16036 ft | 395 kts | 314° |
| 2026-04-30 20:08 | 51.25325 | 8.43066 | 15476 ft | 392 kts | 313° |
| 2026-04-30 20:08 | 51.27103 | 8.39765 | 14928 ft | 390 kts | 313° |
| 2026-04-30 20:08 | 51.28860 | 8.36493 | 14409 ft | 387 kts | 313° |
| 2026-04-30 20:09 | 51.30607 | 8.33225 | 13805 ft | 385 kts | 313° |
| 2026-04-30 20:09 | 51.32339 | 8.29972 | 13229 ft | 382 kts | 313° |
| 2026-04-30 20:09 | 51.35608 | 8.23431 | 12112 ft | 377 kts | 303° |
| 2026-04-30 20:10 | 51.38237 | 8.16240 | 11015 ft | 371 kts | 301° |
| 2026-04-30 20:10 | 51.39529 | 8.12694 | 10499 ft | 368 kts | 301° |
| 2026-04-30 20:10 | 51.40809 | 8.09185 | 10228 ft | 357 kts | 301° |
| 2026-04-30 20:11 | 51.43278 | 8.02657 | 9938 ft | 328 kts | 311° |
| 2026-04-30 20:11 | 51.44887 | 8.00210 | 9810 ft | 313 kts | 323° |
| 2026-04-30 20:11 | 51.46550 | 7.98044 | 9614 ft | 304 kts | 323° |
| 2026-04-30 20:12 | 51.49818 | 7.93847 | 8931 ft | 299 kts | 323° |
| 2026-04-30 20:12 | 51.51444 | 7.91761 | 8563 ft | 298 kts | 323° |
| 2026-04-30 20:12 | 51.53055 | 7.89696 | 8366 ft | 296 kts | 323° |
| 2026-04-30 20:13 | 51.54515 | 7.87345 | 8379 ft | 301 kts | 303° |
| 2026-04-30 20:13 | 51.55268 | 7.84232 | 8386 ft | 302 kts | 276° |
| 2026-04-30 20:13 | 51.55125 | 7.80917 | 8382 ft | 298 kts | 250° |
| 2026-04-30 20:13 | 51.54387 | 7.77816 | 8385 ft | 297 kts | 242° |
| 2026-04-30 20:14 | 51.53231 | 7.75121 | 8371 ft | 292 kts | 226° |
| 2026-04-30 20:14 | 51.51887 | 7.72702 | 8051 ft | 289 kts | 224° |
| 2026-04-30 20:14 | 51.50547 | 7.70350 | 7692 ft | 288 kts | 224° |
| 2026-04-30 20:14 | 51.49272 | 7.67887 | 7348 ft | 289 kts | 236° |
| 2026-04-30 20:15 | 51.48373 | 7.65004 | 7025 ft | 289 kts | 242° |
| 2026-04-30 20:15 | 51.47470 | 7.62133 | 6685 ft | 287 kts | 238° |
| 2026-04-30 20:15 | 51.46516 | 7.59331 | 6343 ft | 285 kts | 238° |
| 2026-04-30 20:15 | 51.45560 | 7.56549 | 6007 ft | 283 kts | 237° |
| 2026-04-30 20:16 | 51.44626 | 7.53814 | 5856 ft | 275 kts | 237° |
| 2026-04-30 20:16 | 51.43729 | 7.51171 | 5725 ft | 265 kts | 237° |
| 2026-04-30 20:16 | 51.42766 | 7.48739 | 5598 ft | 253 kts | 232° |
| 2026-04-30 20:16 | 51.41805 | 7.46442 | 5465 ft | 244 kts | 231° |
| 2026-04-30 20:17 | 51.40874 | 7.44199 | 5261 ft | 240 kts | 233° |
| 2026-04-30 20:17 | 51.39987 | 7.41944 | 4968 ft | 238 kts | 233° |
| 2026-04-30 20:17 | 51.39118 | 7.39694 | 4653 ft | 237 kts | 233° |
| 2026-04-30 20:17 | 51.38350 | 7.37389 | 4435 ft | 233 kts | 249° |
| 2026-04-30 20:18 | 51.38318 | 7.34840 | 4282 ft | 231 kts | 284° |
| 2026-04-30 20:18 | 51.39145 | 7.32682 | 4002 ft | 229 kts | 320° |
| 2026-04-30 20:18 | 51.40538 | 7.31656 | 3822 ft | 212 kts | 358° |
| 2026-04-30 20:18 | 51.41813 | 7.32226 | 3684 ft | 179 kts | 50° |
| 2026-04-30 20:19 | 51.42300 | 7.33795 | 3582 ft | 151 kts | 85° |
| 2026-04-30 20:19 | 51.42675 | 7.35342 | 3379 ft | 150 kts | 65° |
| 2026-04-30 20:19 | 51.43192 | 7.36776 | 3111 ft | 147 kts | 68° |
| 2026-04-30 20:19 | 51.43690 | 7.38189 | 2826 ft | 145 kts | 69° |
| 2026-04-30 20:20 | 51.44182 | 7.39579 | 2571 ft | 141 kts | 69° |
| 2026-04-30 20:20 | 51.44671 | 7.40961 | 2534 ft | 143 kts | 69° |
| 2026-04-30 20:20 | 51.45168 | 7.42366 | 2536 ft | 145 kts | 68° |
| 2026-04-30 20:20 | 51.45666 | 7.43768 | 2538 ft | 145 kts | 69° |
| 2026-04-30 20:21 | 51.46164 | 7.45174 | 2524 ft | 144 kts | 69° |
| 2026-04-30 20:21 | 51.46655 | 7.46557 | 2406 ft | 142 kts | 69° |
| 2026-04-30 20:21 | 51.47135 | 7.47913 | 2250 ft | 141 kts | 69° |
| 2026-04-30 20:21 | 51.47618 | 7.49278 | 2097 ft | 140 kts | 68° |
| 2026-04-30 20:22 | 51.48092 | 7.50614 | 1905 ft | 135 kts | 68° |
| 2026-04-30 20:22 | 51.48549 | 7.51910 | 1720 ft | 132 kts | 66° |
| 2026-04-30 20:22 | 51.49005 | 7.53200 | 1517 ft | 132 kts | 67° |
| 2026-04-30 20:22 | 51.49457 | 7.54481 | 1338 ft | 132 kts | 65° |
| 2026-04-30 20:23 | 51.49909 | 7.55762 | 1156 ft | 132 kts | 64° |
| 2026-04-30 20:23 | 51.50360 | 7.57041 | 966 ft | 131 kts | 63° |
| 2026-04-30 20:23 | 51.50817 | 7.58325 | 803 ft | 134 kts | 62° |
| 2026-04-30 20:23 | 51.51282 | 7.59645 | 612 ft | 137 kts | 62° |
| 2026-04-30 20:24 | 51.51748 | 7.60971 | 424 ft | 135 kts | 60° |
| 2026-04-30 20:24 | 51.52129 | 7.62059 | 415 ft | 74 kts | 60° |
| 2026-04-30 20:24 | 51.52257 | 7.62425 | 412 ft | 23 kts | 61° |
| 2026-04-30 20:24 | 51.52326 | 7.62626 | 410 ft | 14 kts | 69° |
| 2026-04-30 20:25 | 51.52195 | 7.62771 | 411 ft | 7 kts | 208° |
| 2026-04-30 20:25 | 51.52162 | 7.62704 | 411 ft | 8 kts | 239° |
| 2026-04-30 20:26 | 51.52115 | 7.62569 | 413 ft | 5 kts | 241° |
| 2026-04-30 20:26 | 51.52077 | 7.62460 | 413 ft | 8 kts | 240° |
| 2026-04-30 20:26 | 51.52044 | 7.62365 | 415 ft | 12 kts | 241° |
| 2026-04-30 20:27 | 51.51934 | 7.62057 | 411 ft | 20 kts | 239° |
| 2026-04-30 20:27 | 51.51786 | 7.61635 | 421 ft | 15 kts | 241° |
| 2026-04-30 20:28 | 51.51720 | 7.61538 | 434 ft | 7 kts | 206° |
| 2026-04-30 20:28 | 51.51651 | 7.61375 | 422 ft | 3 kts | 240° |
| 2026-04-30 20:29 | 51.51644 | 7.61354 | 428 ft | 0 kts | 240° |
| 2026-04-30 20:32 | 51.51642 | 7.61392 | 432 ft | 4 kts | 343° |
| 2026-04-30 20:32 | 51.51623 | 7.61403 | 422 ft | 0 kts | 331° |